Time;durP1;ratioP1;P1;durP2;ratioP2;P2;SDS_P1;SDS_P2;PMS_P1;PMS_P2;Temp;Humidity;BMP_temperature;BMP_pressure;BME280_temperature;BME280_humidity;BME280_pressure;Samples;Min_cycle;Max_cycle;Signal;HPM_P1;HPM_P2
2023/05/08 00:00:04;;;;;;;23.88;21.88;;;9.40;99.90;;;;;;5014094;28;20041;-77
2023/05/08 00:02:31;;;;;;;23.50;21.60;;;9.50;99.90;;;;;;5001334;28;20107;-78
2023/05/08 00:04:58;;;;;;;23.98;21.88;;;9.50;99.90;;;;;;5024608;28;20048;-77
2023/05/08 00:07:25;;;;;;;24.60;22.40;;;9.40;99.90;;;;;;5017244;28;20042;-77
2023/05/08 00:09:51;;;;;;;25.15;22.90;;;9.30;99.90;;;;;;4997421;28;20052;-75
2023/05/08 00:12:18;;;;;;;25.77;23.52;;;9.40;99.90;;;;;;5018152;28;20033;-78
2023/05/08 00:14:45;;;;;;;26.17;23.77;;;9.40;99.90;;;;;;5002243;28;20798;-77
2023/05/08 00:17:12;;;;;;;25.98;23.48;;;9.30;99.90;;;;;;4992232;28;20037;-77
2023/05/08 00:19:39;;;;;;;26.08;23.58;;;9.30;99.90;;;;;;4998177;28;20049;-78
2023/05/08 00:22:06;;;;;;;24.95;22.55;;;9.20;99.90;;;;;;4995244;28;20044;-77
2023/05/08 00:24:33;;;;;;;26.20;23.83;;;9.30;99.90;;;;;;4998544;28;20052;-77
2023/05/08 00:26:59;;;;;;;25.85;23.30;;;9.20;99.90;;;;;;4995946;28;20525;-77
2023/05/08 00:29:26;;;;;;;26.05;23.52;;;9.20;99.90;;;;;;4994081;28;20053;-77
2023/05/08 00:31:53;;;;;;;25.25;23.00;;;9.20;99.90;;;;;;5013548;28;20033;-77
2023/05/08 00:34:20;;;;;;;25.27;22.95;;;9.20;99.90;;;;;;4996703;28;20132;-77
2023/05/08 00:36:46;;;;;;;26.02;23.65;;;9.20;99.90;;;;;;4982279;28;20037;-77
2023/05/08 00:39:13;;;;;;;25.10;22.83;;;9.20;99.90;;;;;;4985335;28;20068;-77
2023/05/08 00:41:39;;;;;;;27.13;24.60;;;9.20;99.90;;;;;;4982762;28;20046;-77
2023/05/08 00:44:06;;;;;;;29.55;24.48;;;9.20;99.90;;;;;;5001253;28;20084;-77
2023/05/08 00:46:34;;;;;;;26.63;24.17;;;9.20;99.90;;;;;;4998931;28;20491;-77
2023/05/08 00:49:02;;;;;;;27.23;24.48;;;9.20;99.90;;;;;;5001434;28;20174;-76
2023/05/08 00:51:30;;;;;;;27.27;24.83;;;9.20;99.90;;;;;;4982941;28;20048;-78
2023/05/08 00:53:58;;;;;;;27.20;24.60;;;9.20;99.90;;;;;;4999757;28;20095;-77
2023/05/08 00:56:28;;;;;;;28.42;25.55;;;9.20;99.90;;;;;;4979500;28;20065;-75
2023/05/08 00:58:55;;;;;;;27.55;24.95;;;9.20;99.90;;;;;;4979586;28;20045;-76
2023/05/08 01:01:22;;;;;;;27.85;25.25;;;9.10;99.90;;;;;;4984622;28;20045;-77
2023/05/08 01:03:49;;;;;;;27.27;24.55;;;9.00;99.90;;;;;;4998961;28;20046;-77
2023/05/08 01:06:16;;;;;;;27.88;25.20;;;9.10;99.90;;;;;;5001114;28;20120;-77
2023/05/08 01:08:44;;;;;;;27.17;24.05;;;9.10;99.90;;;;;;5000597;28;20088;-77
2023/05/08 01:11:11;;;;;;;28.30;25.55;;;9.10;99.90;;;;;;4994453;28;20531;-76
2023/05/08 01:13:48;;;;;;;26.95;24.23;;;9.10;99.90;;;;;;4986259;28;20037;-77
2023/05/08 01:16:45;;;;;;;28.80;26.00;;;9.00;99.90;;;;;;4999392;28;20121;-77
2023/05/08 01:19:20;;;;;;;27.67;24.77;;;9.00;99.90;;;;;;5000499;28;20100;-77
2023/05/08 01:22:13;;;;;;;28.00;25.10;;;9.00;99.90;;;;;;4997542;28;20270;-77
2023/05/08 01:24:58;;;;;;;29.50;26.30;;;9.00;99.90;;;;;;5003539;28;20068;-76
2023/05/08 01:28:09;;;;;;;29.02;26.10;;;9.00;99.90;;;;;;4985132;28;20072;-78
2023/05/08 01:30:55;;;;;;;28.30;25.48;;;9.00;99.90;;;;;;4997003;28;20048;-77
2023/05/08 01:33:31;;;;;;;28.05;25.25;;;9.00;99.90;;;;;;4986278;28;20037;-77
2023/05/08 01:36:13;;;;;;;28.60;25.60;;;8.90;99.90;;;;;;4985478;28;20057;-77
2023/05/08 01:38:46;;;;;;;25.60;23.08;;;8.90;99.90;;;;;;5000762;28;20707;-77
2023/05/08 01:41:23;;;;;;;27.77;25.02;;;9.00;99.90;;;;;;5016709;28;20049;-78
2023/05/08 01:43:59;;;;;;;29.38;26.02;;;8.90;99.90;;;;;;5020135;28;20060;-77
2023/05/08 01:46:28;;;;;;;28.40;25.55;;;8.90;99.90;;;;;;5002107;28;20045;-76
2023/05/08 01:48:59;;;;;;;34.85;26.50;;;8.90;99.90;;;;;;5002648;28;20045;-78
2023/05/08 01:51:34;;;;;;;27.90;24.90;;;8.90;99.90;;;;;;5000295;28;20611;-78
2023/05/08 01:54:08;;;;;;;30.75;26.85;;;8.90;99.90;;;;;;5005003;28;20033;-76
2023/05/08 01:56:37;;;;;;;31.70;26.98;;;8.90;99.90;;;;;;4987428;28;20053;-77
2023/05/08 01:59:06;;;;;;;30.00;26.88;;;8.80;99.90;;;;;;4985198;28;20096;-77
2023/05/08 02:01:33;;;;;;;29.92;26.35;;;8.90;99.90;;;;;;5003553;28;20049;-77
2023/05/08 02:04:02;;;;;;;29.50;26.35;;;8.80;99.90;;;;;;4986443;28;20356;-77
2023/05/08 02:06:31;;;;;;;29.00;26.15;;;8.80;99.90;;;;;;4986501;28;20055;-77
2023/05/08 02:08:59;;;;;;;29.80;26.73;;;8.70;99.90;;;;;;5001400;28;20077;-77
2023/05/08 02:11:30;;;;;;;28.88;25.85;;;8.80;99.90;;;;;;4986381;28;20663;-77
2023/05/08 02:14:00;;;;;;;30.85;26.75;;;8.80;99.90;;;;;;4988909;28;20049;-78
2023/05/08 02:16:28;;;;;;;29.27;26.15;;;8.70;99.90;;;;;;4984979;28;20132;-76
2023/05/08 02:18:58;;;;;;;30.40;26.98;;;8.70;99.90;;;;;;4999953;28;20509;-77
2023/05/08 02:21:26;;;;;;;31.05;27.75;;;8.60;99.90;;;;;;5001225;28;20064;-77
2023/05/08 02:23:55;;;;;;;33.05;25.27;;;8.60;99.90;;;;;;4998578;28;20060;-77
2023/05/08 02:26:24;;;;;;;30.75;26.30;;;8.60;99.90;;;;;;4983703;28;20045;-77
2023/05/08 02:28:55;;;;;;;28.73;25.40;;;8.50;99.90;;;;;;4995517;28;20498;-77
2023/05/08 02:31:22;;;;;;;32.17;27.23;;;8.50;99.90;;;;;;4991337;28;20044;-77
2023/05/08 02:33:51;;;;;;;30.55;26.73;;;8.50;99.90;;;;;;4985069;28;20042;-78
2023/05/08 02:36:19;;;;;;;31.25;27.83;;;8.50;99.90;;;;;;4985881;28;20099;-77
2023/05/08 02:38:51;;;;;;;33.03;25.98;;;8.50;99.90;;;;;;4990906;28;20106;-77
2023/05/08 02:41:24;;;;;;;32.08;26.30;;;8.50;99.90;;;;;;5017041;28;20048;-77
2023/05/08 02:43:51;;;;;;;32.63;26.98;;;8.50;99.90;;;;;;4999871;28;20698;-77
2023/05/08 02:46:26;;;;;;;33.55;26.55;;;8.50;99.90;;;;;;4999360;28;20048;-77
2023/05/08 02:49:04;;;;;;;33.60;26.45;;;8.40;99.90;;;;;;5000115;28;20199;-78
2023/05/08 02:51:54;;;;;;;31.02;26.27;;;8.40;99.90;;;;;;4984184;28;20719;-77
2023/05/08 02:54:49;;;;;;;30.25;26.95;;;8.40;99.90;;;;;;5002518;28;20038;-77
2023/05/08 02:57:38;;;;;;;32.10;26.33;;;8.40;99.90;;;;;;4997507;28;20044;-77
2023/05/08 03:00:48;;;;;;;31.90;25.80;;;8.40;99.90;;;;;;4994673;28;20043;-78
2023/05/08 03:03:30;;;;;;;31.55;26.73;;;8.30;99.90;;;;;;4967802;28;20135;-77
2023/05/08 03:06:01;;;;;;;31.95;26.77;;;8.30;99.90;;;;;;5004215;28;20037;-77
2023/05/08 03:08:31;;;;;;;35.92;26.77;;;8.30;99.90;;;;;;4987746;28;20045;-78
2023/05/08 03:11:02;;;;;;;33.85;25.75;;;8.40;99.90;;;;;;4999547;28;20581;-77
2023/05/08 03:13:33;;;;;;;31.38;26.33;;;8.30;99.90;;;;;;5003122;28;20464;-77
2023/05/08 03:16:02;;;;;;;33.15;26.23;;;8.40;99.90;;;;;;5003486;28;20164;-78
2023/05/08 03:18:41;;;;;;;38.17;28.25;;;8.40;99.90;;;;;;4981795;28;20095;-77
2023/05/08 03:21:11;;;;;;;33.13;27.90;;;8.40;99.90;;;;;;4999928;28;20042;-78
2023/05/08 03:23:40;;;;;;;32.13;25.25;;;8.40;99.90;;;;;;4987026;28;20046;-77
2023/05/08 03:26:07;;;;;;;33.35;27.30;;;8.40;99.90;;;;;;5001537;28;20041;-77
2023/05/08 03:28:35;;;;;;;32.95;26.60;;;8.30;99.90;;;;;;4988759;28;20040;-77
2023/05/08 03:31:04;;;;;;;34.63;28.52;;;8.30;99.90;;;;;;4981769;28;20061;-77
2023/05/08 03:33:32;;;;;;;37.40;27.80;;;8.30;99.90;;;;;;5003770;28;20148;-76
2023/05/08 03:35:59;;;;;;;34.17;28.75;;;8.30;99.90;;;;;;4984547;28;20659;-77
2023/05/08 03:38:26;;;;;;;45.35;28.20;;;8.30;99.90;;;;;;5002092;28;20052;-77
2023/05/08 03:40:53;;;;;;;33.90;27.15;;;8.20;99.90;;;;;;5002178;28;20440;-78
2023/05/08 03:43:21;;;;;;;36.10;28.88;;;8.30;99.90;;;;;;4985138;28;20041;-77
2023/05/08 03:45:49;;;;;;;37.10;28.75;;;8.20;99.90;;;;;;4984027;28;20052;-77
2023/05/08 03:48:18;;;;;;;35.42;27.88;;;8.20;99.90;;;;;;5017859;28;20637;-77
2023/05/08 03:50:45;;;;;;;33.38;25.17;;;8.20;99.90;;;;;;4997204;28;20053;-77
2023/05/08 03:53:12;;;;;;;32.83;26.75;;;8.20;99.90;;;;;;4983147;28;20048;-77
2023/05/08 03:55:40;;;;;;;35.67;27.30;;;8.20;99.90;;;;;;4981249;28;20052;-77
2023/05/08 03:58:21;;;;;;;33.83;28.08;;;8.20;99.90;;;;;;4987188;28;20041;-77
2023/05/08 04:01:19;;;;;;;35.95;28.40;;;8.20;99.90;;;;;;4998898;28;20041;-76
2023/05/08 04:04:00;;;;;;;33.72;28.25;;;8.10;99.90;;;;;;5014197;28;20068;-77
2023/05/08 04:06:43;;;;;;;36.30;28.05;;;8.10;99.90;;;;;;4998928;28;20060;-77
2023/05/08 04:09:34;;;;;;;36.35;29.02;;;8.10;99.90;;;;;;4985516;28;20052;-76
2023/05/08 04:12:27;;;;;;;33.03;27.67;;;8.10;99.90;;;;;;4978945;28;20037;-77
2023/05/08 04:15:08;;;;;;;40.50;29.67;;;8.10;99.90;;;;;;4943757;28;20046;-77
2023/05/08 04:18:07;;;;;;;34.53;29.20;;;8.10;99.90;;;;;;4981120;28;20056;-76
2023/05/08 04:20:39;;;;;;;36.38;28.15;;;8.10;99.90;;;;;;4996897;28;20046;-76
2023/05/08 04:23:08;;;;;;;34.42;28.55;;;8.20;99.90;;;;;;4983562;28;20526;-77
2023/05/08 04:25:37;;;;;;;35.05;28.38;;;8.20;99.90;;;;;;4992346;28;20469;-77
2023/05/08 04:28:04;;;;;;;34.65;29.33;;;8.20;99.90;;;;;;4985762;28;20045;-76
2023/05/08 04:30:32;;;;;;;33.92;29.30;;;8.20;99.90;;;;;;4995284;28;20042;-78
2023/05/08 04:33:02;;;;;;;38.72;30.08;;;8.30;99.90;;;;;;4997809;28;20030;-77
2023/05/08 04:35:32;;;;;;;34.95;30.02;;;8.30;99.90;;;;;;4982370;28;20053;-77
2023/05/08 04:37:59;;;;;;;34.65;28.75;;;8.30;99.90;;;;;;4982006;28;20137;-76
2023/05/08 04:40:25;;;;;;;33.97;27.70;;;8.30;99.90;;;;;;4983291;28;20119;-76
2023/05/08 04:42:52;;;;;;;36.10;30.42;;;8.20;99.90;;;;;;4980868;28;20047;-76
2023/05/08 04:45:20;;;;;;;35.88;29.50;;;8.30;99.90;;;;;;5015648;28;20037;-76
2023/05/08 04:47:47;;;;;;;35.22;29.38;;;8.30;99.90;;;;;;5000988;28;20042;-76
2023/05/08 04:50:14;;;;;;;32.38;28.90;;;8.40;99.90;;;;;;4982406;28;20688;-77
2023/05/08 04:52:41;;;;;;;33.97;30.23;;;8.50;99.90;;;;;;4981767;28;20767;-76
2023/05/08 04:55:09;;;;;;;33.92;28.30;;;8.40;99.90;;;;;;5000310;28;20034;-78
2023/05/08 04:57:37;;;;;;;34.83;30.20;;;8.50;99.90;;;;;;4985434;28;20038;-76
2023/05/08 05:00:05;;;;;;;33.00;29.58;;;8.60;99.90;;;;;;4987532;28;20137;-77
2023/05/08 05:02:36;;;;;;;34.33;30.13;;;8.70;99.90;;;;;;4997329;28;20041;-76
2023/05/08 05:05:04;;;;;;;32.10;28.80;;;8.70;99.90;;;;;;4986386;28;20056;-77
2023/05/08 05:07:31;;;;;;;34.20;29.42;;;8.80;99.90;;;;;;5000905;28;20126;-76
2023/05/08 05:09:59;;;;;;;37.85;30.95;;;8.70;99.90;;;;;;4986356;28;20103;-76
2023/05/08 05:12:26;;;;;;;33.45;29.63;;;8.70;99.90;;;;;;4990491;28;20103;-76
2023/05/08 05:14:53;;;;;;;34.65;31.20;;;8.60;99.90;;;;;;4982767;28;20103;-78
2023/05/08 05:17:20;;;;;;;36.65;32.17;;;8.60;99.90;;;;;;5000895;28;20061;-77
2023/05/08 05:19:47;;;;;;;35.85;31.85;;;8.60;99.90;;;;;;4986140;28;20052;-77
2023/05/08 05:22:14;;;;;;;34.13;30.60;;;8.60;99.90;;;;;;5004019;28;20069;-76
2023/05/08 05:24:41;;;;;;;34.45;30.55;;;8.70;99.90;;;;;;4988055;28;20079;-76
2023/05/08 05:27:07;;;;;;;34.40;30.70;;;8.70;99.90;;;;;;4987224;28;20470;-78
2023/05/08 05:29:34;;;;;;;33.55;30.02;;;8.60;99.90;;;;;;4984173;28;20060;-77
2023/05/08 05:32:02;;;;;;;36.20;32.25;;;8.50;99.90;;;;;;5000024;28;20610;-76
2023/05/08 05:34:29;;;;;;;35.42;31.65;;;8.60;99.90;;;;;;4998002;28;20037;-78
2023/05/08 05:36:55;;;;;;;35.95;32.13;;;8.60;99.90;;;;;;4998333;28;20478;-77
2023/05/08 05:39:22;;;;;;;39.72;32.72;;;8.70;99.90;;;;;;4981340;28;20037;-77
2023/05/08 05:41:49;;;;;;;36.38;32.22;;;8.60;99.90;;;;;;4981979;28;20045;-78
2023/05/08 05:44:15;;;;;;;35.75;31.85;;;8.60;99.90;;;;;;4980986;28;20132;-77
2023/05/08 05:46:42;;;;;;;32.85;29.38;;;8.70;99.90;;;;;;4998747;28;20137;-79
2023/05/08 05:49:11;;;;;;;37.03;32.35;;;8.70;99.90;;;;;;4999701;28;20045;-77
2023/05/08 05:51:38;;;;;;;35.22;31.20;;;8.60;99.90;;;;;;4976209;28;20037;-78
2023/05/08 05:54:04;;;;;;;36.78;31.77;;;8.70;99.90;;;;;;4986138;28;20143;-78
2023/05/08 05:56:31;;;;;;;37.13;31.73;;;8.80;99.90;;;;;;4982476;28;20673;-77
2023/05/08 05:58:58;;;;;;;34.97;31.27;;;8.90;99.90;;;;;;5016607;28;20067;-78
2023/05/08 06:01:27;;;;;;;33.58;29.98;;;9.10;99.90;;;;;;5001719;28;20053;-77
2023/05/08 06:03:55;;;;;;;34.95;31.40;;;9.20;99.90;;;;;;4999969;28;20073;-77
2023/05/08 06:06:22;;;;;;;35.40;31.90;;;9.50;99.90;;;;;;4986931;28;20568;-76
2023/05/08 06:08:49;;;;;;;35.47;31.73;;;9.50;99.90;;;;;;4987165;28;20048;-76
2023/05/08 06:11:15;;;;;;;36.65;33.03;;;9.60;99.90;;;;;;4982980;28;20049;-77
2023/05/08 06:13:43;;;;;;;36.53;33.30;;;9.90;99.90;;;;;;4998298;28;20038;-76
2023/05/08 06:16:10;;;;;;;36.80;33.20;;;10.00;99.90;;;;;;5000701;28;20477;-77
2023/05/08 06:18:37;;;;;;;38.17;34.40;;;10.20;99.90;;;;;;4983502;28;20427;-78
2023/05/08 06:21:04;;;;;;;37.80;34.22;;;10.50;99.90;;;;;;5000468;28;20037;-78
2023/05/08 06:23:31;;;;;;;37.63;34.33;;;10.60;99.90;;;;;;4999083;28;20049;-76
2023/05/08 06:25:57;;;;;;;38.63;34.92;;;10.50;99.90;;;;;;4999988;28;20065;-78
2023/05/08 06:28:24;;;;;;;37.55;33.95;;;10.60;99.90;;;;;;4998829;28;20052;-77
2023/05/08 06:30:52;;;;;;;35.45;32.22;;;10.60;99.90;;;;;;4985717;28;20507;-78
2023/05/08 06:33:18;;;;;;;38.05;34.55;;;10.40;99.90;;;;;;5001046;28;20069;-76
2023/05/08 06:35:46;;;;;;;37.20;33.83;;;10.70;99.90;;;;;;4999334;28;20038;-77
2023/05/08 06:38:13;;;;;;;37.95;34.75;;;11.00;99.90;;;;;;5016556;28;20038;-77
2023/05/08 06:40:44;;;;;;;39.00;35.47;;;11.00;99.90;;;;;;4980309;28;20061;-78
2023/05/08 06:43:11;;;;;;;38.80;35.50;;;11.10;99.90;;;;;;4984160;28;20049;-77
2023/05/08 06:45:39;;;;;;;39.88;36.58;;;11.30;99.90;;;;;;5000095;28;20051;-77
2023/05/08 06:48:06;;;;;;;41.13;37.58;;;11.50;99.90;;;;;;4997115;28;20041;-77
2023/05/08 06:50:33;;;;;;;40.60;37.03;;;11.80;99.90;;;;;;5001842;28;20052;-77
2023/05/08 06:52:59;;;;;;;41.40;37.80;;;12.20;99.90;;;;;;5003552;28;20079;-77
2023/05/08 06:55:26;;;;;;;39.80;36.28;;;12.10;99.90;;;;;;4984278;28;20146;-76
2023/05/08 06:57:53;;;;;;;40.17;37.03;;;12.10;99.90;;;;;;5004550;28;20052;-77
2023/05/08 07:00:20;;;;;;;41.85;38.22;;;12.30;99.90;;;;;;5002016;28;20033;-77
2023/05/08 07:02:46;;;;;;;39.08;35.88;;;12.50;99.90;;;;;;5002786;28;20056;-76
2023/05/08 07:05:13;;;;;;;41.70;38.17;;;12.50;99.90;;;;;;5000271;28;20140;-77
2023/05/08 07:07:41;;;;;;;41.65;38.38;;;12.50;99.90;;;;;;4999229;28;20050;-76
2023/05/08 07:10:08;;;;;;;41.38;37.92;;;12.30;99.90;;;;;;5020078;28;20045;-77
2023/05/08 07:12:35;;;;;;;41.67;38.40;;;12.60;99.90;;;;;;4978793;28;20682;-77
2023/05/08 07:15:02;;;;;;;42.10;38.90;;;12.70;99.90;;;;;;5014585;28;20033;-78
2023/05/08 07:17:49;;;;;;;40.45;37.15;;;12.90;99.90;;;;;;4993436;28;20049;-77
2023/05/08 07:20:16;;;;;;;42.22;38.88;;;12.90;99.90;;;;;;4993692;28;20037;-77
2023/05/08 07:22:43;;;;;;;42.50;39.15;;;12.90;99.90;;;;;;5000711;28;20081;-77
2023/05/08 07:25:10;;;;;;;41.47;38.08;;;13.20;99.90;;;;;;5002075;28;20251;-78
2023/05/08 07:27:37;;;;;;;40.83;37.55;;;13.70;99.90;;;;;;4997871;28;20053;-77
2023/05/08 07:30:04;;;;;;;40.35;37.30;;;14.00;99.90;;;;;;4998580;28;20511;-78
2023/05/08 07:32:31;;;;;;;41.38;38.10;;;14.30;99.90;;;;;;4984287;28;20053;-77
2023/05/08 07:34:58;;;;;;;40.72;37.63;;;14.30;99.90;;;;;;5000236;28;20120;-78
2023/05/08 07:37:24;;;;;;;41.67;38.60;;;14.10;99.90;;;;;;4982109;28;20033;-77
2023/05/08 07:39:51;;;;;;;40.78;37.83;;;14.10;99.90;;;;;;4997894;28;20081;-78
2023/05/08 07:42:18;;;;;;;39.60;36.47;;;14.60;99.90;;;;;;5011883;28;20029;-77
2023/05/08 07:44:44;;;;;;;40.38;37.28;;;14.80;99.90;;;;;;4995618;28;20072;-77
2023/05/08 07:47:21;;;;;;;41.75;38.45;;;15.30;99.90;;;;;;4991554;28;20124;-76
2023/05/08 07:49:48;;;;;;;39.75;36.70;;;15.30;99.90;;;;;;4979985;28;20671;-77
2023/05/08 07:52:15;;;;;;;41.40;38.30;;;15.60;99.90;;;;;;4991571;28;20124;-77
2023/05/08 07:54:42;;;;;;;42.45;39.28;;;15.70;99.90;;;;;;4992855;28;20631;-77
2023/05/08 07:57:09;;;;;;;42.20;39.13;;;15.80;99.90;;;;;;4994323;28;20511;-78
2023/05/08 07:59:35;;;;;;;41.42;38.30;;;16.40;99.90;;;;;;4995809;28;20538;-76
2023/05/08 08:02:02;;;;;;;42.75;39.50;;;16.50;99.90;;;;;;5018837;28;20049;-77
2023/05/08 08:04:29;;;;;;;41.17;38.10;;;16.60;99.90;;;;;;5016739;28;20046;-77
2023/05/08 08:06:56;;;;;;;40.60;37.60;;;16.80;99.90;;;;;;5016763;28;20091;-77
2023/05/08 08:09:23;;;;;;;42.90;39.80;;;16.70;99.90;;;;;;4998637;28;20076;-76
2023/05/08 08:11:49;;;;;;;42.08;38.97;;;16.60;99.90;;;;;;4986037;28;20048;-77
2023/05/08 08:14:16;;;;;;;41.42;38.33;;;16.50;99.90;;;;;;4982852;28;20533;-77
2023/05/08 08:16:43;;;;;;;40.70;38.00;;;16.30;99.90;;;;;;5010245;28;20033;-78
2023/05/08 08:19:09;;;;;;;42.10;38.88;;;16.50;99.90;;;;;;5017843;28;20030;-76
2023/05/08 08:21:42;;;;;;;43.22;40.22;;;17.10;99.90;;;;;;5000610;28;20045;-76
2023/05/08 08:24:09;;;;;;;42.78;39.80;;;16.90;99.90;;;;;;4999234;28;20053;-76
2023/05/08 08:26:36;;;;;;;42.70;39.70;;;17.10;99.90;;;;;;4982123;28;20053;-76
2023/05/08 08:29:03;;;;;;;42.78;39.80;;;16.90;99.90;;;;;;5018988;28;20041;-77
2023/05/08 08:31:30;;;;;;;41.72;39.00;;;17.00;99.90;;;;;;5012099;28;20045;-76
2023/05/08 08:33:57;;;;;;;42.65;39.88;;;17.10;99.90;;;;;;4999977;28;20042;-76
2023/05/08 08:36:23;;;;;;;41.95;39.00;;;17.30;99.90;;;;;;5019083;28;20123;-76
2023/05/08 08:38:51;;;;;;;42.80;39.78;;;17.30;99.90;;;;;;5002076;28;20041;-76
2023/05/08 08:41:17;;;;;;;42.05;39.05;;;17.40;99.90;;;;;;5000522;28;20040;-77
2023/05/08 08:43:44;;;;;;;41.90;39.03;;;17.80;99.90;;;;;;5003299;28;20065;-77
2023/05/08 08:46:14;;;;;;;41.25;38.42;;;17.90;99.90;;;;;;4998512;28;20160;-76
2023/05/08 08:48:44;;;;;;;41.63;38.80;;;18.10;99.90;;;;;;5000018;28;20041;-76
2023/05/08 08:51:41;;;;;;;45.65;42.70;;;18.20;99.90;;;;;;5002269;28;20056;-76
2023/05/08 08:54:11;;;;;;;44.78;41.78;;;18.20;99.90;;;;;;5022527;28;20694;-77
2023/05/08 08:56:41;;;;;;;45.33;42.15;;;18.10;99.90;;;;;;5000573;28;20046;-76
2023/05/08 08:59:10;;;;;;;46.95;43.33;;;17.80;99.90;;;;;;5001759;28;20503;-76
2023/05/08 09:01:39;;;;;;;44.15;41.25;;;17.60;99.90;;;;;;5017900;28;20034;-76
2023/05/08 09:04:06;;;;;;;45.00;41.83;;;17.90;99.90;;;;;;5021677;28;20603;-76
2023/05/08 09:06:37;;;;;;;44.83;41.63;;;18.30;99.90;;;;;;4986733;28;20509;-76
2023/05/08 09:09:04;;;;;;;45.88;42.65;;;18.40;99.90;;;;;;5021122;28;20069;-76
2023/05/08 09:11:31;;;;;;;43.28;40.15;;;18.50;99.90;;;;;;5013072;28;20048;-76
2023/05/08 09:13:58;;;;;;;44.78;41.58;;;18.60;99.90;;;;;;5014472;28;20713;-75
2023/05/08 09:16:27;;;;;;;45.00;41.78;;;18.60;99.90;;;;;;5018590;28;20112;-77
2023/05/08 09:18:54;;;;;;;46.55;43.28;;;18.20;99.90;;;;;;5002158;28;20045;-76
2023/05/08 09:21:22;;;;;;;44.85;41.75;;;18.00;99.90;;;;;;4999046;28;20034;-76
2023/05/08 09:24:00;;;;;;;44.40;41.22;;;18.20;99.90;;;;;;4995724;28;20049;-76
2023/05/08 09:26:40;;;;;;;44.35;41.50;;;18.50;99.90;;;;;;4997148;28;20046;-76
2023/05/08 09:29:11;;;;;;;44.22;41.13;;;18.60;99.90;;;;;;5002378;28;20046;-76
2023/05/08 09:31:45;;;;;;;44.40;41.30;;;18.70;99.90;;;;;;4998513;28;20099;-76
2023/05/08 09:34:33;;;;;;;46.70;43.45;;;19.20;99.90;;;;;;4993381;28;20048;-76
2023/05/08 09:37:06;;;;;;;46.47;43.38;;;19.00;99.90;;;;;;5016457;28;20572;-77
2023/05/08 09:39:33;;;;;;;45.72;42.50;;;18.90;99.90;;;;;;4992347;28;20042;-76
2023/05/08 09:42:04;;;;;;;46.13;43.03;;;19.20;99.90;;;;;;5001015;28;20041;-75
2023/05/08 09:44:44;;;;;;;45.78;42.83;;;19.50;99.90;;;;;;4995541;28;20041;-76
2023/05/08 09:47:14;;;;;;;49.17;45.78;;;19.40;99.90;;;;;;5013668;28;20132;-76
2023/05/08 09:50:01;;;;;;;47.90;44.70;;;19.20;99.90;;;;;;4996375;28;20747;-76
2023/05/08 09:52:29;;;;;;;51.08;47.40;;;19.10;99.90;;;;;;4998735;28;20625;-76
2023/05/08 09:55:01;;;;;;;49.85;46.13;;;19.00;99.90;;;;;;4996940;28;20037;-76
2023/05/08 09:57:29;;;;;;;46.83;43.72;;;18.60;99.90;;;;;;4996997;28;20115;-76
2023/05/08 10:00:07;;;;;;;48.22;44.88;;;18.80;99.90;;;;;;4982160;28;20045;-76
2023/05/08 10:02:41;;;;;;;47.97;44.60;;;19.00;99.90;;;;;;5000807;28;20518;-75
2023/05/08 10:05:28;;;;;;;48.67;45.47;;;19.50;99.90;;;;;;5003688;28;20146;-76
2023/05/08 10:07:56;;;;;;;48.22;44.97;;;19.90;99.90;;;;;;4999345;28;20060;-77
2023/05/08 10:10:27;;;;;;;48.78;45.33;;;19.90;99.90;;;;;;5002127;28;20625;-75
2023/05/08 10:12:55;;;;;;;50.25;46.70;;;19.90;99.90;;;;;;4983136;28;20041;-76
2023/05/08 10:15:24;;;;;;;46.45;43.15;;;19.80;99.90;;;;;;4998521;28;20046;-76
2023/05/08 10:17:57;;;;;;;47.10;43.97;;;19.90;99.90;;;;;;5018708;28;20037;-75
2023/05/08 10:20:28;;;;;;;47.80;44.83;;;20.30;99.90;;;;;;4999631;28;20045;-76
2023/05/08 10:22:56;;;;;;;49.72;46.45;;;20.30;99.90;;;;;;4999768;28;20041;-75
2023/05/08 10:25:24;;;;;;;51.05;47.63;;;20.30;99.90;;;;;;5026108;28;20081;-76
2023/05/08 10:28:04;;;;;;;47.50;44.45;;;20.30;99.90;;;;;;4982685;28;20639;-75
2023/05/08 10:30:35;;;;;;;46.33;43.42;;;20.10;99.90;;;;;;5004012;28;20131;-75
2023/05/08 10:33:08;;;;;;;46.25;43.17;;;20.30;99.90;;;;;;4986751;28;20053;-77
2023/05/08 10:35:36;;;;;;;45.45;42.35;;;20.10;99.90;;;;;;4998404;28;20107;-76
2023/05/08 10:38:03;;;;;;;47.60;44.50;;;20.20;99.90;;;;;;5017786;28;20041;-76
2023/05/08 10:40:30;;;;;;;46.47;43.58;;;20.20;99.90;;;;;;4981732;28;20073;-74
2023/05/08 10:42:58;;;;;;;46.85;43.83;;;20.30;99.90;;;;;;4999950;28;20044;-75
2023/05/08 10:45:26;;;;;;;46.50;43.30;;;20.30;99.90;;;;;;4996890;28;20053;-77
2023/05/08 10:48:07;;;;;;;47.70;44.60;;;20.70;99.90;;;;;;4999779;28;20059;-75
2023/05/08 10:50:40;;;;;;;47.45;44.28;;;20.80;99.90;;;;;;4997993;28;20052;-77
2023/05/08 10:53:27;;;;;;;46.03;43.20;;;20.40;99.90;;;;;;5000962;28;20041;-76
2023/05/08 10:55:54;;;;;;;47.13;44.10;;;20.50;99.90;;;;;;4995710;28;20514;-76
2023/05/08 10:58:32;;;;;;;46.92;43.83;;;20.50;99.90;;;;;;5017280;28;20072;-74
2023/05/08 11:00:58;;;;;;;43.35;40.65;;;20.30;99.90;;;;;;4997431;28;20069;-76
2023/05/08 11:03:26;;;;;;;46.50;43.33;;;20.50;99.90;;;;;;5016407;28;20044;-75
2023/05/08 11:05:59;;;;;;;43.47;40.67;;;20.70;99.90;;;;;;5000213;28;20045;-76
2023/05/08 11:08:27;;;;;;;47.70;44.30;;;21.00;99.90;;;;;;4998530;28;20526;-77
2023/05/08 11:10:57;;;;;;;46.15;42.72;;;20.90;99.90;;;;;;4998588;28;20047;-76
2023/05/08 11:13:44;;;;;;;45.42;42.30;;;20.60;99.90;;;;;;4998580;28;20040;-76
2023/05/08 11:16:52;;;;;;;45.85;42.83;;;20.60;99.90;;;;;;5065596;27;20387;-74
2023/05/08 11:19:20;;;;;;;46.85;43.65;;;20.50;99.90;;;;;;5055813;28;20087;-73
2023/05/08 11:22:09;;;;;;;46.97;44.00;;;20.70;99.90;;;;;;5054274;28;20059;-75
2023/05/08 11:24:38;;;;;;;47.47;44.53;;;20.60;99.90;;;;;;5051971;28;20618;-73
2023/05/08 11:27:05;;;;;;;46.92;43.83;;;20.70;99.90;;;;;;5051748;28;20143;-74
2023/05/08 11:29:32;;;;;;;46.97;43.95;;;20.50;99.90;;;;;;5050117;28;20044;-74
2023/05/08 11:31:59;;;;;;;46.70;43.70;;;20.50;99.90;;;;;;5051708;28;20617;-74
2023/05/08 11:34:41;;;;;;;45.47;42.30;;;20.50;99.90;;;;;;5053409;28;20479;-74
2023/05/08 11:37:23;;;;;;;45.30;41.95;;;20.20;99.90;;;;;;5055635;28;20033;-74
2023/05/08 11:39:49;;;;;;;44.58;41.58;;;20.40;99.90;;;;;;5054686;28;20041;-73
2023/05/08 11:42:36;;;;;;;46.42;43.42;;;21.10;99.90;;;;;;5053820;28;20177;-75
2023/05/08 11:45:09;;;;;;;46.92;43.58;;;21.10;99.90;;;;;;5048690;28;20262;-75
2023/05/08 11:47:40;;;;;;;45.65;42.63;;;21.00;99.90;;;;;;5039946;28;20960;-75
2023/05/08 11:50:08;;;;;;;45.83;42.92;;;20.90;99.90;;;;;;5051138;28;20063;-74
2023/05/08 11:52:36;;;;;;;45.88;42.63;;;21.20;99.90;;;;;;5032922;28;20131;-74
2023/05/08 11:55:08;;;;;;;45.00;41.70;;;21.10;99.90;;;;;;5046315;28;20028;-73
2023/05/08 11:57:35;;;;;;;44.47;41.25;;;21.30;99.90;;;;;;5054053;28;20576;-75
2023/05/08 12:00:08;;;;;;;46.22;43.13;;;21.40;99.90;;;;;;5031186;28;20044;-73
2023/05/08 12:02:38;;;;;;;43.85;40.95;;;20.90;99.90;;;;;;5049048;28;21093;-75
2023/05/08 12:05:09;;;;;;;47.38;44.17;;;20.80;99.90;;;;;;5055421;28;20040;-73
2023/05/08 12:07:46;;;;;;;46.67;43.65;;;20.50;99.90;;;;;;5054596;28;21001;-74
2023/05/08 12:10:14;;;;;;;45.38;42.38;;;20.80;99.90;;;;;;5087838;27;20928;-75
2023/05/08 12:12:43;;;;;;;45.10;41.97;;;20.90;99.90;;;;;;5047279;28;20048;-75
2023/05/08 12:15:13;;;;;;;45.78;42.58;;;21.00;99.90;;;;;;5054475;28;20048;-76
2023/05/08 12:17:41;;;;;;;46.70;43.30;;;20.70;99.90;;;;;;5050452;28;20386;-74
2023/05/08 12:20:16;;;;;;;45.97;42.95;;;20.20;99.90;;;;;;5054544;28;20128;-75
2023/05/08 12:22:51;;;;;;;46.47;43.08;;;20.60;99.90;;;;;;5033789;28;20315;-74
2023/05/08 12:25:19;;;;;;;46.28;42.75;;;21.20;99.90;;;;;;5026480;28;20068;-73
2023/05/08 12:27:47;;;;;;;46.90;43.78;;;21.60;99.90;;;;;;5019307;28;20049;-74
2023/05/08 12:30:14;;;;;;;49.65;46.25;;;21.10;99.90;;;;;;5014852;28;20168;-74
2023/05/08 12:32:43;;;;;;;47.28;44.10;;;21.20;99.90;;;;;;5014390;28;20056;-75
2023/05/08 12:35:11;;;;;;;47.75;44.65;;;21.30;99.90;;;;;;5014037;28;20099;-74
2023/05/08 12:37:38;;;;;;;46.50;43.30;;;21.60;99.90;;;;;;5015033;28;20105;-73
2023/05/08 12:40:06;;;;;;;45.78;42.67;;;21.30;99.90;;;;;;5044466;22;20045;-74
2023/05/08 12:42:51;;;;;;;44.88;41.72;;;21.40;99.90;;;;;;4994312;28;20042;-74
2023/05/08 12:45:24;;;;;;;46.38;43.25;;;21.20;99.90;;;;;;4997749;28;20054;-75
2023/05/08 12:47:52;;;;;;;45.97;42.88;;;21.30;99.90;;;;;;5017714;28;20144;-75